Cobden, Illinois
Current Conditions -  °F | °C
As of 5:52 PM on Sunday 21 Dec 2014 (Local Time) from KMDH Reporting Station
Clear Clear  
Wind Chill: 38°   Ceiling: Unl
Heat Index: 38°   Visibility: 10mi
Dew Point: 29°   Wind: 0mph
Humidity: 70%   Direction: NA
Pressure: 30.06"   Gusts: NA
Location:  37.53°N, 89.25°W
Report Text: KMDH 212352Z AUTO 00000KT 10SM CLR 03/M02 A3006 RMK AO2 SLP183 T00331017 10083 20028 55004
Loading
Personal Weather Stations






























Interactive Weather Map New forecast layout! Learn more

10-Day Weather Forecast

Advertisements
Track Severe Weather on mobile